sensor_id;sensor_type;location;lat;lon;timestamp;P1;durP1;ratioP1;P2;durP2;ratioP2
6015;SDS011;3036;49.960;8.454;2023-08-06T00:00:56;2.40;;;2.30;;
6015;SDS011;3036;49.960;8.454;2023-08-06T00:03:25;3.17;;;2.63;;
6015;SDS011;3036;49.960;8.454;2023-08-06T00:05:52;2.90;;;2.17;;
6015;SDS011;3036;49.960;8.454;2023-08-06T00:08:19;2.50;;;2.40;;
6015;SDS011;3036;49.960;8.454;2023-08-06T00:10:47;2.30;;;2.17;;
6015;SDS011;3036;49.960;8.454;2023-08-06T00:13:14;2.25;;;2.10;;
6015;SDS011;3036;49.960;8.454;2023-08-06T00:15:44;2.72;;;2.63;;
6015;SDS011;3036;49.960;8.454;2023-08-06T00:18:11;2.22;;;2.13;;
6015;SDS011;3036;49.960;8.454;2023-08-06T00:20:40;2.20;;;2.10;;
6015;SDS011;3036;49.960;8.454;2023-08-06T00:23:07;3.83;;;2.53;;
6015;SDS011;3036;49.960;8.454;2023-08-06T00:25:34;2.75;;;2.42;;
6015;SDS011;3036;49.960;8.454;2023-08-06T00:28:01;2.85;;;2.50;;
6015;SDS011;3036;49.960;8.454;2023-08-06T00:30:28;2.80;;;2.70;;
6015;SDS011;3036;49.960;8.454;2023-08-06T00:32:55;2.45;;;2.35;;
6015;SDS011;3036;49.960;8.454;2023-08-06T00:35:22;2.88;;;2.70;;
6015;SDS011;3036;49.960;8.454;2023-08-06T00:37:50;3.58;;;2.53;;
6015;SDS011;3036;49.960;8.454;2023-08-06T00:40:19;2.17;;;2.08;;
6015;SDS011;3036;49.960;8.454;2023-08-06T00:42:47;2.50;;;2.40;;
6015;SDS011;3036;49.960;8.454;2023-08-06T00:45:14;2.72;;;2.63;;
6015;SDS011;3036;49.960;8.454;2023-08-06T00:47:41;2.75;;;2.55;;
6015;SDS011;3036;49.960;8.454;2023-08-06T00:50:08;2.60;;;2.50;;
6015;SDS011;3036;49.960;8.454;2023-08-06T00:52:35;2.92;;;2.83;;
6015;SDS011;3036;49.960;8.454;2023-08-06T00:55:04;3.00;;;2.80;;
6015;SDS011;3036;49.960;8.454;2023-08-06T00:57:32;3.08;;;2.88;;
6015;SDS011;3036;49.960;8.454;2023-08-06T00:59:59;2.45;;;2.35;;
6015;SDS011;3036;49.960;8.454;2023-08-06T01:02:26;5.20;;;2.90;;
6015;SDS011;3036;49.960;8.454;2023-08-06T01:04:53;3.05;;;2.88;;
6015;SDS011;3036;49.960;8.454;2023-08-06T01:07:24;2.28;;;2.20;;
6015;SDS011;3036;49.960;8.454;2023-08-06T01:09:55;2.53;;;2.40;;
6015;SDS011;3036;49.960;8.454;2023-08-06T01:12:29;4.07;;;2.60;;
6015;SDS011;3036;49.960;8.454;2023-08-06T01:15:00;2.60;;;2.50;;
6015;SDS011;3036;49.960;8.454;2023-08-06T01:17:31;2.63;;;2.40;;
6015;SDS011;3036;49.960;8.454;2023-08-06T01:19:58;2.42;;;2.30;;
6015;SDS011;3036;49.960;8.454;2023-08-06T01:22:27;3.47;;;2.70;;
6015;SDS011;3036;49.960;8.454;2023-08-06T01:24:54;2.40;;;2.30;;
6015;SDS011;3036;49.960;8.454;2023-08-06T01:27:23;2.50;;;2.30;;
6015;SDS011;3036;49.960;8.454;2023-08-06T01:29:55;2.35;;;2.25;;
6015;SDS011;3036;49.960;8.454;2023-08-06T01:32:23;2.58;;;2.38;;
6015;SDS011;3036;49.960;8.454;2023-08-06T01:34:51;2.30;;;2.20;;
6015;SDS011;3036;49.960;8.454;2023-08-06T01:37:19;2.72;;;2.63;;
6015;SDS011;3036;49.960;8.454;2023-08-06T01:39:47;2.60;;;2.50;;
6015;SDS011;3036;49.960;8.454;2023-08-06T01:42:14;2.90;;;2.38;;
6015;SDS011;3036;49.960;8.454;2023-08-06T01:44:41;2.25;;;2.15;;
6015;SDS011;3036;49.960;8.454;2023-08-06T01:47:08;4.32;;;2.60;;
6015;SDS011;3036;49.960;8.454;2023-08-06T01:49:35;2.58;;;2.47;;
6015;SDS011;3036;49.960;8.454;2023-08-06T01:52:03;2.75;;;2.65;;
6015;SDS011;3036;49.960;8.454;2023-08-06T01:54:30;6.78;;;2.90;;
6015;SDS011;3036;49.960;8.454;2023-08-06T01:56:58;2.03;;;1.92;;
6015;SDS011;3036;49.960;8.454;2023-08-06T01:59:25;2.55;;;2.45;;
6015;SDS011;3036;49.960;8.454;2023-08-06T02:01:52;3.67;;;2.25;;
6015;SDS011;3036;49.960;8.454;2023-08-06T02:04:19;2.85;;;2.65;;
6015;SDS011;3036;49.960;8.454;2023-08-06T02:06:46;2.20;;;2.10;;
6015;SDS011;3036;49.960;8.454;2023-08-06T02:09:13;2.05;;;2.05;;
6015;SDS011;3036;49.960;8.454;2023-08-06T02:11:40;3.20;;;2.05;;
6015;SDS011;3036;49.960;8.454;2023-08-06T02:14:09;3.22;;;2.30;;
6015;SDS011;3036;49.960;8.454;2023-08-06T02:16:36;2.50;;;2.40;;
6015;SDS011;3036;49.960;8.454;2023-08-06T02:19:04;2.47;;;2.13;;
6015;SDS011;3036;49.960;8.454;2023-08-06T02:21:31;1.92;;;1.92;;
6015;SDS011;3036;49.960;8.454;2023-08-06T02:23:58;2.20;;;2.10;;
6015;SDS011;3036;49.960;8.454;2023-08-06T02:26:25;2.13;;;1.95;;
6015;SDS011;3036;49.960;8.454;2023-08-06T02:28:52;2.00;;;1.90;;
6015;SDS011;3036;49.960;8.454;2023-08-06T02:31:20;2.10;;;2.00;;
6015;SDS011;3036;49.960;8.454;2023-08-06T02:33:47;1.90;;;1.80;;
6015;SDS011;3036;49.960;8.454;2023-08-06T02:36:14;4.85;;;1.98;;
6015;SDS011;3036;49.960;8.454;2023-08-06T02:38:41;4.45;;;1.90;;
6015;SDS011;3036;49.960;8.454;2023-08-06T02:41:08;3.97;;;2.28;;
6015;SDS011;3036;49.960;8.454;2023-08-06T02:43:35;2.28;;;2.00;;
6015;SDS011;3036;49.960;8.454;2023-08-06T02:46:02;1.75;;;1.65;;
6015;SDS011;3036;49.960;8.454;2023-08-06T02:48:30;1.75;;;1.75;;
6015;SDS011;3036;49.960;8.454;2023-08-06T02:50:58;2.30;;;2.00;;
6015;SDS011;3036;49.960;8.454;2023-08-06T02:53:26;2.85;;;2.00;;
6015;SDS011;3036;49.960;8.454;2023-08-06T02:55:53;3.53;;;1.70;;
6015;SDS011;3036;49.960;8.454;2023-08-06T02:58:20;3.33;;;1.90;;
6015;SDS011;3036;49.960;8.454;2023-08-06T03:00:58;1.88;;;1.88;;
6015;SDS011;3036;49.960;8.454;2023-08-06T03:03:25;3.08;;;1.67;;
6015;SDS011;3036;49.960;8.454;2023-08-06T03:05:54;1.90;;;1.90;;
6015;SDS011;3036;49.960;8.454;2023-08-06T03:08:21;2.92;;;1.80;;
6015;SDS011;3036;49.960;8.454;2023-08-06T03:10:48;2.63;;;1.80;;
6015;SDS011;3036;49.960;8.454;2023-08-06T03:13:15;2.15;;;1.95;;
6015;SDS011;3036;49.960;8.454;2023-08-06T03:15:42;1.95;;;1.77;;
6015;SDS011;3036;49.960;8.454;2023-08-06T03:18:09;1.60;;;1.60;;
6015;SDS011;3036;49.960;8.454;2023-08-06T03:20:36;2.13;;;1.50;;
6015;SDS011;3036;49.960;8.454;2023-08-06T03:23:05;2.10;;;2.00;;
6015;SDS011;3036;49.960;8.454;2023-08-06T03:25:34;1.40;;;1.40;;
6015;SDS011;3036;49.960;8.454;2023-08-06T03:28:01;1.65;;;1.65;;
6015;SDS011;3036;49.960;8.454;2023-08-06T03:30:28;1.55;;;1.55;;
6015;SDS011;3036;49.960;8.454;2023-08-06T03:32:55;1.88;;;1.65;;
6015;SDS011;3036;49.960;8.454;2023-08-06T03:35:22;1.80;;;1.70;;
6015;SDS011;3036;49.960;8.454;2023-08-06T03:37:49;1.63;;;1.55;;
6015;SDS011;3036;49.960;8.454;2023-08-06T03:40:18;1.60;;;1.50;;
6015;SDS011;3036;49.960;8.454;2023-08-06T03:42:45;2.00;;;1.90;;
6015;SDS011;3036;49.960;8.454;2023-08-06T03:45:12;2.10;;;1.50;;
6015;SDS011;3036;49.960;8.454;2023-08-06T03:47:39;1.70;;;1.60;;
6015;SDS011;3036;49.960;8.454;2023-08-06T03:50:06;1.50;;;1.40;;
6015;SDS011;3036;49.960;8.454;2023-08-06T03:52:33;1.48;;;1.30;;
6015;SDS011;3036;49.960;8.454;2023-08-06T03:55:00;1.20;;;1.20;;
6015;SDS011;3036;49.960;8.454;2023-08-06T03:57:29;1.67;;;1.50;;
6015;SDS011;3036;49.960;8.454;2023-08-06T03:59:56;1.20;;;1.20;;
6015;SDS011;3036;49.960;8.454;2023-08-06T04:02:23;1.55;;;1.40;;
6015;SDS011;3036;49.960;8.454;2023-08-06T04:04:50;1.45;;;1.38;;
6015;SDS011;3036;49.960;8.454;2023-08-06T04:07:18;1.08;;;1.08;;
6015;SDS011;3036;49.960;8.454;2023-08-06T04:09:52;1.45;;;1.25;;
6015;SDS011;3036;49.960;8.454;2023-08-06T04:12:19;1.40;;;1.30;;
6015;SDS011;3036;49.960;8.454;2023-08-06T04:14:48;1.25;;;1.10;;
6015;SDS011;3036;49.960;8.454;2023-08-06T04:17:15;1.67;;;1.13;;
6015;SDS011;3036;49.960;8.454;2023-08-06T04:19:45;1.27;;;1.10;;
6015;SDS011;3036;49.960;8.454;2023-08-06T04:22:12;4.00;;;0.93;;
6015;SDS011;3036;49.960;8.454;2023-08-06T04:24:39;0.77;;;0.77;;
6015;SDS011;3036;49.960;8.454;2023-08-06T04:27:06;0.70;;;0.70;;
6015;SDS011;3036;49.960;8.454;2023-08-06T04:29:33;0.73;;;0.73;;
6015;SDS011;3036;49.960;8.454;2023-08-06T04:32:01;0.52;;;0.52;;
6015;SDS011;3036;49.960;8.454;2023-08-06T04:34:28;0.60;;;0.60;;
6015;SDS011;3036;49.960;8.454;2023-08-06T04:36:55;1.35;;;0.75;;
6015;SDS011;3036;49.960;8.454;2023-08-06T04:39:22;0.40;;;0.40;;
6015;SDS011;3036;49.960;8.454;2023-08-06T04:41:49;2.97;;;0.60;;
6015;SDS011;3036;49.960;8.454;2023-08-06T04:44:17;0.43;;;0.40;;
6015;SDS011;3036;49.960;8.454;2023-08-06T04:46:44;1.92;;;0.60;;
6015;SDS011;3036;49.960;8.454;2023-08-06T04:49:12;1.52;;;0.60;;
6015;SDS011;3036;49.960;8.454;2023-08-06T04:51:39;0.73;;;0.50;;
6015;SDS011;3036;49.960;8.454;2023-08-06T04:54:09;4.15;;;0.70;;
6015;SDS011;3036;49.960;8.454;2023-08-06T04:56:36;3.30;;;0.50;;
6015;SDS011;3036;49.960;8.454;2023-08-06T04:59:03;0.60;;;0.55;;
6015;SDS011;3036;49.960;8.454;2023-08-06T05:01:30;0.70;;;0.70;;
6015;SDS011;3036;49.960;8.454;2023-08-06T05:03:57;0.65;;;0.63;;
6015;SDS011;3036;49.960;8.454;2023-08-06T05:06:26;1.00;;;0.70;;
6015;SDS011;3036;49.960;8.454;2023-08-06T05:08:53;0.60;;;0.60;;
6015;SDS011;3036;49.960;8.454;2023-08-06T05:11:20;0.70;;;0.70;;
6015;SDS011;3036;49.960;8.454;2023-08-06T05:13:47;2.03;;;0.77;;
6015;SDS011;3036;49.960;8.454;2023-08-06T05:16:14;0.63;;;0.63;;
6015;SDS011;3036;49.960;8.454;2023-08-06T05:18:41;0.60;;;0.60;;
6015;SDS011;3036;49.960;8.454;2023-08-06T05:21:08;0.57;;;0.52;;
6015;SDS011;3036;49.960;8.454;2023-08-06T05:23:37;0.77;;;0.63;;
6015;SDS011;3036;49.960;8.454;2023-08-06T05:26:04;0.55;;;0.50;;
6015;SDS011;3036;49.960;8.454;2023-08-06T05:28:31;0.60;;;0.60;;
6015;SDS011;3036;49.960;8.454;2023-08-06T05:30:58;0.55;;;0.55;;
6015;SDS011;3036;49.960;8.454;2023-08-06T05:33:25;1.88;;;0.70;;
6015;SDS011;3036;49.960;8.454;2023-08-06T05:35:52;0.50;;;0.50;;
6015;SDS011;3036;49.960;8.454;2023-08-06T05:38:19;0.68;;;0.50;;
6015;SDS011;3036;49.960;8.454;2023-08-06T05:40:47;0.85;;;0.50;;
6015;SDS011;3036;49.960;8.454;2023-08-06T05:43:14;0.30;;;0.30;;
6015;SDS011;3036;49.960;8.454;2023-08-06T05:45:43;0.45;;;0.45;;
6015;SDS011;3036;49.960;8.454;2023-08-06T05:48:11;0.60;;;0.60;;
6015;SDS011;3036;49.960;8.454;2023-08-06T05:50:38;0.40;;;0.40;;
6015;SDS011;3036;49.960;8.454;2023-08-06T05:53:05;0.20;;;0.20;;
6015;SDS011;3036;49.960;8.454;2023-08-06T05:55:32;0.30;;;0.30;;
6015;SDS011;3036;49.960;8.454;2023-08-06T05:58:01;0.35;;;0.35;;
6015;SDS011;3036;49.960;8.454;2023-08-06T06:00:28;0.38;;;0.32;;
6015;SDS011;3036;49.960;8.454;2023-08-06T06:02:55;0.30;;;0.30;;
6015;SDS011;3036;49.960;8.454;2023-08-06T06:05:23;1.45;;;0.28;;
6015;SDS011;3036;49.960;8.454;2023-08-06T06:07:50;1.33;;;0.30;;
6015;SDS011;3036;49.960;8.454;2023-08-06T06:10:17;0.80;;;0.80;;
6015;SDS011;3036;49.960;8.454;2023-08-06T06:12:44;0.10;;;0.10;;
6015;SDS011;3036;49.960;8.454;2023-08-06T06:15:12;0.28;;;0.20;;
6015;SDS011;3036;49.960;8.454;2023-08-06T06:17:39;0.55;;;0.22;;
6015;SDS011;3036;49.960;8.454;2023-08-06T06:20:06;1.00;;;0.25;;
6015;SDS011;3036;49.960;8.454;2023-08-06T06:22:34;0.20;;;0.20;;
6015;SDS011;3036;49.960;8.454;2023-08-06T06:25:01;0.10;;;0.10;;
6015;SDS011;3036;49.960;8.454;2023-08-06T06:27:28;0.20;;;0.20;;
6015;SDS011;3036;49.960;8.454;2023-08-06T06:29:55;0.63;;;0.20;;
6015;SDS011;3036;49.960;8.454;2023-08-06T06:32:23;0.10;;;0.10;;
6015;SDS011;3036;49.960;8.454;2023-08-06T06:34:50;2.80;;;0.25;;
6015;SDS011;3036;49.960;8.454;2023-08-06T06:37:17;0.20;;;0.20;;
6015;SDS011;3036;49.960;8.454;2023-08-06T06:39:44;0.40;;;0.10;;
6015;SDS011;3036;49.960;8.454;2023-08-06T06:42:11;1.23;;;0.30;;
6015;SDS011;3036;49.960;8.454;2023-08-06T06:44:40;1.10;;;0.17;;
6015;SDS011;3036;49.960;8.454;2023-08-06T06:47:07;0.45;;;0.20;;
6015;SDS011;3036;49.960;8.454;2023-08-06T06:49:35;0.10;;;0.10;;
6015;SDS011;3036;49.960;8.454;2023-08-06T06:52:02;0.20;;;0.20;;
6015;SDS011;3036;49.960;8.454;2023-08-06T06:54:30;0.47;;;0.20;;
6015;SDS011;3036;49.960;8.454;2023-08-06T06:56:57;0.20;;;0.20;;
6015;SDS011;3036;49.960;8.454;2023-08-06T06:59:24;0.25;;;0.10;;
6015;SDS011;3036;49.960;8.454;2023-08-06T07:01:51;0.75;;;0.20;;
6015;SDS011;3036;49.960;8.454;2023-08-06T07:04:18;1.75;;;0.30;;
6015;SDS011;3036;49.960;8.454;2023-08-06T07:06:46;0.20;;;0.20;;
6015;SDS011;3036;49.960;8.454;2023-08-06T07:09:14;0.55;;;0.25;;
6015;SDS011;3036;49.960;8.454;2023-08-06T07:11:41;1.00;;;0.20;;
6015;SDS011;3036;49.960;8.454;2023-08-06T07:14:09;0.25;;;0.25;;
6015;SDS011;3036;49.960;8.454;2023-08-06T07:16:36;0.20;;;0.20;;
6015;SDS011;3036;49.960;8.454;2023-08-06T07:19:05;0.20;;;0.20;;
6015;SDS011;3036;49.960;8.454;2023-08-06T07:21:32;0.38;;;0.22;;
6015;SDS011;3036;49.960;8.454;2023-08-06T07:24:00;0.10;;;0.10;;
6015;SDS011;3036;49.960;8.454;2023-08-06T07:26:27;0.10;;;0.10;;
6015;SDS011;3036;49.960;8.454;2023-08-06T07:28:54;0.10;;;0.10;;
6015;SDS011;3036;49.960;8.454;2023-08-06T07:31:21;0.20;;;0.10;;
6015;SDS011;3036;49.960;8.454;2023-08-06T07:33:49;0.10;;;0.10;;
6015;SDS011;3036;49.960;8.454;2023-08-06T07:36:16;0.20;;;0.20;;
6015;SDS011;3036;49.960;8.454;2023-08-06T07:38:43;0.10;;;0.10;;
6015;SDS011;3036;49.960;8.454;2023-08-06T07:41:11;0.65;;;0.20;;
6015;SDS011;3036;49.960;8.454;2023-08-06T07:43:38;0.10;;;0.10;;
6015;SDS011;3036;49.960;8.454;2023-08-06T07:46:05;0.10;;;0.10;;
6015;SDS011;3036;49.960;8.454;2023-08-06T07:48:32;1.02;;;0.30;;
6015;SDS011;3036;49.960;8.454;2023-08-06T07:50:59;0.28;;;0.10;;
6015;SDS011;3036;49.960;8.454;2023-08-06T07:53:26;0.20;;;0.20;;
6015;SDS011;3036;49.960;8.454;2023-08-06T07:55:54;0.10;;;0.10;;
6015;SDS011;3036;49.960;8.454;2023-08-06T07:58:23;0.10;;;0.10;;
6015;SDS011;3036;49.960;8.454;2023-08-06T08:00:50;0.20;;;0.20;;
6015;SDS011;3036;49.960;8.454;2023-08-06T08:03:17;0.22;;;0.22;;
6015;SDS011;3036;49.960;8.454;2023-08-06T08:05:44;0.38;;;0.20;;
6015;SDS011;3036;49.960;8.454;2023-08-06T08:08:11;0.43;;;0.20;;
6015;SDS011;3036;49.960;8.454;2023-08-06T08:10:39;0.20;;;0.20;;
6015;SDS011;3036;49.960;8.454;2023-08-06T08:13:06;0.20;;;0.20;;
6015;SDS011;3036;49.960;8.454;2023-08-06T08:15:34;0.47;;;0.17;;
6015;SDS011;3036;49.960;8.454;2023-08-06T08:18:01;0.20;;;0.20;;
6015;SDS011;3036;49.960;8.454;2023-08-06T08:20:28;0.10;;;0.10;;
6015;SDS011;3036;49.960;8.454;2023-08-06T08:22:57;0.20;;;0.20;;
6015;SDS011;3036;49.960;8.454;2023-08-06T08:25:24;0.30;;;0.30;;
6015;SDS011;3036;49.960;8.454;2023-08-06T08:27:52;0.28;;;0.28;;
6015;SDS011;3036;49.960;8.454;2023-08-06T08:30:19;0.20;;;0.20;;
6015;SDS011;3036;49.960;8.454;2023-08-06T08:32:47;0.80;;;0.20;;
6015;SDS011;3036;49.960;8.454;2023-08-06T08:35:14;0.20;;;0.20;;
6015;SDS011;3036;49.960;8.454;2023-08-06T08:37:41;0.85;;;0.30;;
6015;SDS011;3036;49.960;8.454;2023-08-06T08:40:09;0.20;;;0.20;;
6015;SDS011;3036;49.960;8.454;2023-08-06T08:42:36;0.10;;;0.10;;
6015;SDS011;3036;49.960;8.454;2023-08-06T08:45:04;0.30;;;0.30;;
6015;SDS011;3036;49.960;8.454;2023-08-06T08:47:31;0.30;;;0.30;;
6015;SDS011;3036;49.960;8.454;2023-08-06T08:49:59;0.85;;;0.30;;
6015;SDS011;3036;49.960;8.454;2023-08-06T08:52:27;0.20;;;0.20;;
6015;SDS011;3036;49.960;8.454;2023-08-06T08:54:55;0.20;;;0.20;;
6015;SDS011;3036;49.960;8.454;2023-08-06T08:57:22;0.20;;;0.20;;
6015;SDS011;3036;49.960;8.454;2023-08-06T08:59:50;0.50;;;0.20;;
6015;SDS011;3036;49.960;8.454;2023-08-06T09:02:17;0.28;;;0.25;;
6015;SDS011;3036;49.960;8.454;2023-08-06T09:04:44;0.45;;;0.17;;
6015;SDS011;3036;49.960;8.454;2023-08-06T09:07:16;0.13;;;0.10;;
6015;SDS011;3036;49.960;8.454;2023-08-06T09:12:53;0.10;;;0.10;;
6015;SDS011;3036;49.960;8.454;2023-08-06T09:15:23;0.10;;;0.10;;
6015;SDS011;3036;49.960;8.454;2023-08-06T09:17:51;0.17;;;0.17;;
6015;SDS011;3036;49.960;8.454;2023-08-06T09:20:18;0.13;;;0.13;;
6015;SDS011;3036;49.960;8.454;2023-08-06T09:22:47;0.17;;;0.17;;
6015;SDS011;3036;49.960;8.454;2023-08-06T09:25:19;0.10;;;0.10;;
6015;SDS011;3036;49.960;8.454;2023-08-06T09:27:48;0.10;;;0.10;;
6015;SDS011;3036;49.960;8.454;2023-08-06T09:30:28;0.10;;;0.10;;
6015;SDS011;3036;49.960;8.454;2023-08-06T09:32:55;0.17;;;0.17;;
6015;SDS011;3036;49.960;8.454;2023-08-06T09:35:22;0.10;;;0.10;;
6015;SDS011;3036;49.960;8.454;2023-08-06T09:37:51;0.10;;;0.10;;
6015;SDS011;3036;49.960;8.454;2023-08-06T09:40:24;0.10;;;0.10;;
6015;SDS011;3036;49.960;8.454;2023-08-06T09:42:52;1.85;;;0.20;;
6015;SDS011;3036;49.960;8.454;2023-08-06T09:45:19;0.10;;;0.10;;
6015;SDS011;3036;49.960;8.454;2023-08-06T09:47:47;0.20;;;0.20;;
6015;SDS011;3036;49.960;8.454;2023-08-06T09:50:15;0.20;;;0.20;;
6015;SDS011;3036;49.960;8.454;2023-08-06T09:52:42;0.13;;;0.13;;
6015;SDS011;3036;49.960;8.454;2023-08-06T09:55:11;1.02;;;0.43;;
6015;SDS011;3036;49.960;8.454;2023-08-06T09:57:39;0.20;;;0.20;;
6015;SDS011;3036;49.960;8.454;2023-08-06T10:00:07;0.10;;;0.10;;
6015;SDS011;3036;49.960;8.454;2023-08-06T10:02:35;0.15;;;0.15;;
6015;SDS011;3036;49.960;8.454;2023-08-06T10:05:02;0.10;;;0.10;;
6015;SDS011;3036;49.960;8.454;2023-08-06T10:07:30;0.20;;;0.15;;
6015;SDS011;3036;49.960;8.454;2023-08-06T10:09:58;0.15;;;0.13;;
6015;SDS011;3036;49.960;8.454;2023-08-06T10:15:21;0.10;;;0.10;;
6015;SDS011;3036;49.960;8.454;2023-08-06T10:17:50;0.52;;;0.20;;
6015;SDS011;3036;49.960;8.454;2023-08-06T10:20:18;0.50;;;0.50;;
6015;SDS011;3036;49.960;8.454;2023-08-06T10:22:46;0.13;;;0.13;;
6015;SDS011;3036;49.960;8.454;2023-08-06T10:25:16;0.10;;;0.10;;
6015;SDS011;3036;49.960;8.454;2023-08-06T10:27:52;0.15;;;0.15;;
6015;SDS011;3036;49.960;8.454;2023-08-06T10:30:25;0.10;;;0.10;;
6015;SDS011;3036;49.960;8.454;2023-08-06T10:32:52;1.30;;;0.10;;
6015;SDS011;3036;49.960;8.454;2023-08-06T10:35:28;0.30;;;0.30;;
6015;SDS011;3036;49.960;8.454;2023-08-06T10:38:02;0.20;;;0.20;;
6015;SDS011;3036;49.960;8.454;2023-08-06T10:40:30;0.17;;;0.17;;
6015;SDS011;3036;49.960;8.454;2023-08-06T10:42:58;0.13;;;0.10;;
6015;SDS011;3036;49.960;8.454;2023-08-06T10:45:27;0.10;;;0.10;;
6015;SDS011;3036;49.960;8.454;2023-08-06T10:47:55;0.10;;;0.10;;
6015;SDS011;3036;49.960;8.454;2023-08-06T10:50:23;0.10;;;0.10;;
6015;SDS011;3036;49.960;8.454;2023-08-06T10:52:50;0.38;;;0.15;;
6015;SDS011;3036;49.960;8.454;2023-08-06T10:55:24;0.20;;;0.20;;
6015;SDS011;3036;49.960;8.454;2023-08-06T10:57:51;0.17;;;0.17;;
6015;SDS011;3036;49.960;8.454;2023-08-06T11:00:18;0.10;;;0.10;;
6015;SDS011;3036;49.960;8.454;2023-08-06T11:02:47;0.15;;;0.15;;
6015;SDS011;3036;49.960;8.454;2023-08-06T11:05:15;0.10;;;0.10;;
6015;SDS011;3036;49.960;8.454;2023-08-06T11:07:42;0.52;;;0.13;;
6015;SDS011;3036;49.960;8.454;2023-08-06T11:10:10;0.20;;;0.20;;
6015;SDS011;3036;49.960;8.454;2023-08-06T11:12:37;0.95;;;0.20;;
6015;SDS011;3036;49.960;8.454;2023-08-06T11:15:04;0.05;;;0.05;;
6015;SDS011;3036;49.960;8.454;2023-08-06T11:17:32;0.20;;;0.20;;
6015;SDS011;3036;49.960;8.454;2023-08-06T11:20:01;0.00;;;0.00;;
6015;SDS011;3036;49.960;8.454;2023-08-06T11:22:28;0.10;;;0.00;;
6015;SDS011;3036;49.960;8.454;2023-08-06T11:24:56;0.10;;;0.10;;
6015;SDS011;3036;49.960;8.454;2023-08-06T11:27:23;0.70;;;0.10;;
6015;SDS011;3036;49.960;8.454;2023-08-06T11:29:52;1.65;;;0.00;;
6015;SDS011;3036;49.960;8.454;2023-08-06T11:32:19;0.25;;;0.00;;
6015;SDS011;3036;49.960;8.454;2023-08-06T11:34:46;0.98;;;0.08;;
6015;SDS011;3036;49.960;8.454;2023-08-06T11:37:15;0.20;;;0.20;;
6015;SDS011;3036;49.960;8.454;2023-08-06T11:39:44;0.03;;;0.03;;
6015;SDS011;3036;49.960;8.454;2023-08-06T11:42:12;0.85;;;0.28;;
6015;SDS011;3036;49.960;8.454;2023-08-06T11:44:40;0.00;;;0.00;;
6015;SDS011;3036;49.960;8.454;2023-08-06T11:47:11;0.00;;;0.00;;
6015;SDS011;3036;49.960;8.454;2023-08-06T11:49:40;0.17;;;0.17;;
6015;SDS011;3036;49.960;8.454;2023-08-06T11:52:17;0.93;;;0.10;;
6015;SDS011;3036;49.960;8.454;2023-08-06T11:54:46;0.10;;;0.10;;
6015;SDS011;3036;49.960;8.454;2023-08-06T11:57:13;0.30;;;0.08;;
6015;SDS011;3036;49.960;8.454;2023-08-06T11:59:44;0.20;;;0.20;;
6015;SDS011;3036;49.960;8.454;2023-08-06T12:02:11;0.10;;;0.10;;
6015;SDS011;3036;49.960;8.454;2023-08-06T12:05:00;0.00;;;0.00;;
6015;SDS011;3036;49.960;8.454;2023-08-06T12:07:30;0.10;;;0.10;;
6015;SDS011;3036;49.960;8.454;2023-08-06T12:09:58;0.10;;;0.10;;
6015;SDS011;3036;49.960;8.454;2023-08-06T12:12:25;0.10;;;0.10;;
6015;SDS011;3036;49.960;8.454;2023-08-06T12:14:52;0.60;;;0.30;;
6015;SDS011;3036;49.960;8.454;2023-08-06T12:17:19;0.25;;;0.25;;
6015;SDS011;3036;49.960;8.454;2023-08-06T12:19:47;0.75;;;0.20;;
6015;SDS011;3036;49.960;8.454;2023-08-06T12:22:14;0.17;;;0.13;;
6015;SDS011;3036;49.960;8.454;2023-08-06T12:24:42;0.10;;;0.10;;
6015;SDS011;3036;49.960;8.454;2023-08-06T12:27:10;0.20;;;0.20;;
6015;SDS011;3036;49.960;8.454;2023-08-06T12:29:37;0.22;;;0.20;;
6015;SDS011;3036;49.960;8.454;2023-08-06T12:32:07;0.10;;;0.10;;
6015;SDS011;3036;49.960;8.454;2023-08-06T12:34:34;0.10;;;0.10;;
6015;SDS011;3036;49.960;8.454;2023-08-06T12:37:01;1.23;;;0.20;;
6015;SDS011;3036;49.960;8.454;2023-08-06T12:39:29;0.20;;;0.20;;
6015;SDS011;3036;49.960;8.454;2023-08-06T12:41:57;0.57;;;0.20;;
6015;SDS011;3036;49.960;8.454;2023-08-06T12:44:24;0.40;;;0.40;;
6015;SDS011;3036;49.960;8.454;2023-08-06T12:46:52;0.40;;;0.40;;
6015;SDS011;3036;49.960;8.454;2023-08-06T12:49:20;0.28;;;0.28;;
6015;SDS011;3036;49.960;8.454;2023-08-06T12:51:47;0.30;;;0.30;;
6015;SDS011;3036;49.960;8.454;2023-08-06T12:54:16;0.40;;;0.40;;
6015;SDS011;3036;49.960;8.454;2023-08-06T12:56:43;0.30;;;0.30;;
6015;SDS011;3036;49.960;8.454;2023-08-06T12:59:11;2.08;;;0.35;;
6015;SDS011;3036;49.960;8.454;2023-08-06T13:01:38;0.20;;;0.20;;
6015;SDS011;3036;49.960;8.454;2023-08-06T13:04:05;0.20;;;0.20;;
6015;SDS011;3036;49.960;8.454;2023-08-06T13:06:33;0.40;;;0.40;;
6015;SDS011;3036;49.960;8.454;2023-08-06T13:09:01;0.35;;;0.35;;
6015;SDS011;3036;49.960;8.454;2023-08-06T13:11:29;0.50;;;0.50;;
6015;SDS011;3036;49.960;8.454;2023-08-06T13:13:58;0.50;;;0.22;;
6015;SDS011;3036;49.960;8.454;2023-08-06T13:16:27;0.28;;;0.28;;
6015;SDS011;3036;49.960;8.454;2023-08-06T13:18:54;0.25;;;0.25;;
6015;SDS011;3036;49.960;8.454;2023-08-06T13:21:21;0.43;;;0.32;;
6015;SDS011;3036;49.960;8.454;2023-08-06T13:23:48;0.52;;;0.50;;
6015;SDS011;3036;49.960;8.454;2023-08-06T13:26:15;0.40;;;0.40;;
6015;SDS011;3036;49.960;8.454;2023-08-06T13:28:42;0.85;;;0.30;;
6015;SDS011;3036;49.960;8.454;2023-08-06T13:31:09;0.20;;;0.20;;
6015;SDS011;3036;49.960;8.454;2023-08-06T13:33:38;3.60;;;0.43;;
6015;SDS011;3036;49.960;8.454;2023-08-06T13:36:05;0.40;;;0.40;;
6015;SDS011;3036;49.960;8.454;2023-08-06T13:38:32;1.58;;;0.40;;
6015;SDS011;3036;49.960;8.454;2023-08-06T13:41:00;1.75;;;0.30;;
6015;SDS011;3036;49.960;8.454;2023-08-06T13:43:28;0.20;;;0.20;;
6015;SDS011;3036;49.960;8.454;2023-08-06T13:45:55;0.40;;;0.40;;
6015;SDS011;3036;49.960;8.454;2023-08-06T13:48:22;0.30;;;0.30;;
6015;SDS011;3036;49.960;8.454;2023-08-06T13:50:50;0.30;;;0.30;;
6015;SDS011;3036;49.960;8.454;2023-08-06T13:53:17;0.30;;;0.30;;
6015;SDS011;3036;49.960;8.454;2023-08-06T13:55:44;0.20;;;0.20;;
6015;SDS011;3036;49.960;8.454;2023-08-06T13:58:12;0.20;;;0.20;;
6015;SDS011;3036;49.960;8.454;2023-08-06T14:00:39;0.57;;;0.20;;
6015;SDS011;3036;49.960;8.454;2023-08-06T14:03:06;0.20;;;0.20;;
6015;SDS011;3036;49.960;8.454;2023-08-06T14:05:34;0.10;;;0.10;;
6015;SDS011;3036;49.960;8.454;2023-08-06T14:08:02;0.13;;;0.13;;
6015;SDS011;3036;49.960;8.454;2023-08-06T14:10:30;0.25;;;0.25;;
6015;SDS011;3036;49.960;8.454;2023-08-06T14:12:57;0.20;;;0.20;;
6015;SDS011;3036;49.960;8.454;2023-08-06T14:15:24;0.22;;;0.20;;
6015;SDS011;3036;49.960;8.454;2023-08-06T14:17:51;0.20;;;0.20;;
6015;SDS011;3036;49.960;8.454;2023-08-06T14:20:18;0.10;;;0.10;;
6015;SDS011;3036;49.960;8.454;2023-08-06T14:22:45;0.20;;;0.20;;
6015;SDS011;3036;49.960;8.454;2023-08-06T14:25:14;0.70;;;0.20;;
6015;SDS011;3036;49.960;8.454;2023-08-06T14:27:41;0.20;;;0.20;;
6015;SDS011;3036;49.960;8.454;2023-08-06T14:30:08;0.20;;;0.20;;
6015;SDS011;3036;49.960;8.454;2023-08-06T14:32:35;1.45;;;0.22;;
6015;SDS011;3036;49.960;8.454;2023-08-06T14:35:02;0.32;;;0.25;;
6015;SDS011;3036;49.960;8.454;2023-08-06T14:37:29;0.68;;;0.20;;
6015;SDS011;3036;49.960;8.454;2023-08-06T14:39:57;1.08;;;0.32;;
6015;SDS011;3036;49.960;8.454;2023-08-06T14:42:25;1.67;;;0.20;;
6015;SDS011;3036;49.960;8.454;2023-08-06T14:44:52;0.10;;;0.10;;
6015;SDS011;3036;49.960;8.454;2023-08-06T14:47:19;0.10;;;0.10;;
6015;SDS011;3036;49.960;8.454;2023-08-06T14:49:46;0.70;;;0.10;;
6015;SDS011;3036;49.960;8.454;2023-08-06T14:52:14;0.70;;;0.52;;
6015;SDS011;3036;49.960;8.454;2023-08-06T14:54:41;0.45;;;0.20;;
6015;SDS011;3036;49.960;8.454;2023-08-06T14:57:08;0.20;;;0.20;;
6015;SDS011;3036;49.960;8.454;2023-08-06T14:59:37;0.00;;;0.00;;
6015;SDS011;3036;49.960;8.454;2023-08-06T15:02:05;0.68;;;0.20;;
6015;SDS011;3036;49.960;8.454;2023-08-06T15:04:32;0.10;;;0.10;;
6015;SDS011;3036;49.960;8.454;2023-08-06T15:06:59;1.17;;;0.10;;
6015;SDS011;3036;49.960;8.454;2023-08-06T15:09:26;0.10;;;0.10;;
6015;SDS011;3036;49.960;8.454;2023-08-06T15:11:53;0.10;;;0.10;;
6015;SDS011;3036;49.960;8.454;2023-08-06T15:14:20;1.40;;;0.30;;
6015;SDS011;3036;49.960;8.454;2023-08-06T15:16:49;0.10;;;0.10;;
6015;SDS011;3036;49.960;8.454;2023-08-06T15:19:16;0.10;;;0.10;;
6015;SDS011;3036;49.960;8.454;2023-08-06T15:21:43;0.20;;;0.20;;
6015;SDS011;3036;49.960;8.454;2023-08-06T15:24:11;0.10;;;0.10;;